Terminal Aerodrome Forecast
Issued by NWS

Home | Current Version | Previous Version | Text Only | Print | Product List | Glossary On
Versions: 1 2 3 4 5 6 7 8 9 10 11 12 13 14 15 16 17 18
000
FTUS46 KLOX 201100
TAFSBP
TAF
KSBP 201135Z 2012/2112 VRB05KT P6SM OVC011
     FM201400 VRB03KT P6SM OVC008
     FM201700 VRB03KT P6SM OVC020
     FM202000 30012KT P6SM SCT025 BKN150
     FM210200 VRB05KT P6SM SCT030 SCT150
     FM210500 VRB03KT P6SM BKN015
     FM210700 VRB05KT P6SM OVC008=

USA.gov is the U.S. government's official web portal to all federal, state and local government web resources and services.